Time;durP1;ratioP1;P1;durP2;ratioP2;P2;SDS_P1;SDS_P2;PMS_P1;PMS_P2;Temp;Humidity;BMP_temperature;BMP_pressure;BME280_temperature;BME280_humidity;BME280_pressure;Samples;Min_cycle;Max_cycle;Signal;HPM_P1;HPM_P2
2021/08/25 00:02:40;;;;;;;13.43;12.23;;;16.80;99.90;;;;;;10521723;28;20584;-83
2021/08/25 00:07:44;;;;;;;12.80;11.80;;;16.80;99.90;;;;;;10521825;28;20223;-83
2021/08/25 00:12:46;;;;;;;11.90;10.90;;;16.70;99.90;;;;;;10542111;28;20710;-82
2021/08/25 00:17:48;;;;;;;12.30;11.40;;;16.70;99.90;;;;;;10501791;28;20600;-82
2021/08/25 00:22:51;;;;;;;12.47;11.53;;;16.60;99.90;;;;;;10473091;28;20188;-82
2021/08/25 00:27:53;;;;;;;12.40;11.50;;;16.50;99.90;;;;;;10498854;28;20258;-82
2021/08/25 00:32:55;;;;;;;15.53;11.40;;;16.40;99.90;;;;;;10488536;28;20591;-81
2021/08/25 00:37:59;;;;;;;12.70;11.70;;;16.40;99.90;;;;;;10490718;28;20197;-82
2021/08/25 00:43:05;;;;;;;12.60;11.60;;;16.30;99.90;;;;;;10510151;28;20531;-83
2021/08/25 00:48:08;;;;;;;13.20;12.30;;;16.30;99.90;;;;;;10491210;28;20196;-82
2021/08/25 00:53:11;;;;;;;12.97;11.97;;;16.20;99.90;;;;;;10463431;28;20231;-82
2021/08/25 00:58:15;;;;;;;12.77;11.67;;;16.20;99.90;;;;;;10481572;28;20210;-81
2021/08/25 01:03:21;;;;;;;14.17;12.97;;;16.20;99.90;;;;;;10463048;28;20212;-81
2021/08/25 01:08:25;;;;;;;13.73;12.43;;;16.10;99.90;;;;;;10498481;28;20207;-82
2021/08/25 01:13:28;;;;;;;12.57;11.57;;;16.10;99.90;;;;;;10482915;28;20681;-82
2021/08/25 01:18:30;;;;;;;13.10;12.00;;;16.10;99.90;;;;;;10504811;28;20201;-82
2021/08/25 01:23:37;;;;;;;13.00;11.90;;;16.00;99.90;;;;;;10486437;28;20221;-82
2021/08/25 01:28:46;;;;;;;13.17;12.07;;;16.00;99.90;;;;;;10503799;28;20208;-81
2021/08/25 01:33:49;;;;;;;13.90;12.80;;;15.90;99.90;;;;;;10463693;28;20708;-82
2021/08/25 01:38:55;;;;;;;13.67;12.37;;;15.90;99.90;;;;;;10483916;28;20295;-82
2021/08/25 01:43:58;;;;;;;13.30;12.20;;;15.90;99.90;;;;;;10527524;28;20903;-82
2021/08/25 01:49:05;;;;;;;14.23;13.13;;;15.90;99.90;;;;;;10483336;28;20203;-82
2021/08/25 01:54:08;;;;;;;12.50;11.50;;;15.80;99.90;;;;;;10520312;28;20221;-82
2021/08/25 01:59:10;;;;;;;12.90;11.80;;;15.80;99.90;;;;;;10488103;28;20195;-83
2021/08/25 02:04:13;;;;;;;13.77;12.60;;;15.80;99.90;;;;;;10503517;28;20299;-82
2021/08/25 02:09:15;;;;;;;12.40;11.40;;;15.70;99.90;;;;;;10518367;28;20224;-81
2021/08/25 02:14:18;;;;;;;13.17;12.17;;;15.70;99.90;;;;;;10507796;28;20688;-82
2021/08/25 02:19:21;;;;;;;13.17;12.17;;;15.70;99.90;;;;;;10484536;28;20254;-83
2021/08/25 02:24:23;;;;;;;12.83;11.70;;;15.60;99.90;;;;;;10505369;28;20226;-82
2021/08/25 02:29:25;;;;;;;13.40;12.30;;;15.60;99.90;;;;;;10496740;28;20304;-82
2021/08/25 02:34:29;;;;;;;12.63;11.63;;;15.60;99.90;;;;;;10484470;28;20250;-82
2021/08/25 02:39:31;;;;;;;12.50;11.40;;;15.60;99.90;;;;;;10498939;28;20203;-81
2021/08/25 02:44:33;;;;;;;12.00;11.10;;;15.60;99.90;;;;;;10530439;28;20302;-82
2021/08/25 02:49:37;;;;;;;13.73;12.43;;;15.50;99.90;;;;;;10495510;28;20232;-82
2021/08/25 02:54:39;;;;;;;13.10;11.80;;;15.50;99.90;;;;;;10510297;28;20224;-83
2021/08/25 02:59:41;;;;;;;12.50;11.50;;;15.50;99.90;;;;;;10504901;28;20211;-82
2021/08/25 03:04:44;;;;;;;12.70;11.70;;;15.40;99.90;;;;;;10479765;28;20247;-83
2021/08/25 03:09:47;;;;;;;13.70;12.60;;;15.40;99.90;;;;;;10497212;28;20203;-82
2021/08/25 03:14:49;;;;;;;13.20;12.20;;;15.40;99.90;;;;;;10513189;28;20757;-82
2021/08/25 03:19:52;;;;;;;13.23;12.13;;;15.40;99.90;;;;;;10513975;28;20266;-82
2021/08/25 03:24:54;;;;;;;14.23;13.10;;;15.30;99.90;;;;;;10491706;28;20230;-81
2021/08/25 03:29:56;;;;;;;13.93;12.60;;;15.30;99.90;;;;;;10478101;28;20235;-83
2021/08/25 03:35:00;;;;;;;15.03;13.73;;;15.30;99.90;;;;;;10508477;28;20592;-82
2021/08/25 03:40:02;;;;;;;13.40;12.27;;;15.30;99.90;;;;;;10520956;28;20636;-83
2021/08/25 03:45:05;;;;;;;13.17;12.20;;;15.20;99.90;;;;;;10521200;28;20220;-82
2021/08/25 03:50:10;;;;;;;15.40;14.10;;;15.20;99.90;;;;;;10520791;28;20234;-81
2021/08/25 03:55:12;;;;;;;12.80;11.90;;;15.10;99.90;;;;;;10520992;28;20227;-82
2021/08/25 04:00:15;;;;;;;14.47;13.27;;;15.10;99.90;;;;;;10515798;28;20196;-82
2021/08/25 04:05:18;;;;;;;14.60;13.30;;;15.10;99.90;;;;;;10472620;28;20216;-82
2021/08/25 04:10:21;;;;;;;14.97;13.07;;;15.10;99.90;;;;;;10521856;28;20647;-81
2021/08/25 04:15:23;;;;;;;13.77;12.60;;;15.00;99.90;;;;;;10503089;28;20293;-82
2021/08/25 04:20:26;;;;;;;15.13;13.83;;;15.00;99.90;;;;;;10487536;28;20253;-81
2021/08/25 04:25:28;;;;;;;13.83;12.60;;;15.00;99.90;;;;;;10523665;28;20237;-82
2021/08/25 04:30:30;;;;;;;14.60;13.40;;;15.00;99.90;;;;;;10510140;28;20282;-81
2021/08/25 04:35:34;;;;;;;15.07;13.20;;;15.00;99.90;;;;;;10530176;28;20330;-81
2021/08/25 04:40:36;;;;;;;15.13;13.93;;;15.00;99.90;;;;;;10505030;28;20206;-83
2021/08/25 04:45:38;;;;;;;14.10;13.00;;;15.00;99.90;;;;;;10507447;28;20220;-83
2021/08/25 04:50:42;;;;;;;14.00;12.90;;;15.00;99.90;;;;;;10518434;28;20200;-82
2021/08/25 04:55:44;;;;;;;14.83;13.53;;;15.00;99.90;;;;;;10479537;28;20239;-82
2021/08/25 05:00:48;;;;;;;14.83;13.63;;;15.00;99.90;;;;;;10476285;28;20211;-82
2021/08/25 05:05:52;;;;;;;15.17;13.77;;;15.00;99.90;;;;;;10504002;28;20216;-81
2021/08/25 05:10:54;;;;;;;13.03;12.10;;;15.10;99.90;;;;;;10524088;28;20706;-81
2021/08/25 05:15:56;;;;;;;15.23;14.03;;;15.10;99.90;;;;;;10525869;28;20242;-82
2021/08/25 05:21:00;;;;;;;15.50;14.20;;;15.10;99.90;;;;;;10510496;28;20203;-82
2021/08/25 05:26:02;;;;;;;13.93;12.83;;;15.10;99.90;;;;;;10509053;28;20225;-81
2021/08/25 05:31:04;;;;;;;12.90;11.80;;;15.10;99.90;;;;;;10537257;28;20344;-81
2021/08/25 05:36:08;;;;;;;14.57;13.30;;;15.10;99.90;;;;;;10525593;28;20699;-81
2021/08/25 05:41:10;;;;;;;14.73;13.40;;;15.10;99.90;;;;;;10510976;28;20199;-82
2021/08/25 05:46:12;;;;;;;15.60;14.20;;;15.20;99.90;;;;;;10526218;28;20596;-82
2021/08/25 05:51:15;;;;;;;15.57;14.33;;;15.20;99.90;;;;;;10526940;28;20216;-82
2021/08/25 05:56:18;;;;;;;16.07;14.67;;;15.30;99.90;;;;;;10550047;22;20232;-83
2021/08/25 06:01:20;;;;;;;16.23;14.87;;;15.30;99.90;;;;;;10494225;28;20203;-83
2021/08/25 06:06:29;;;;;;;18.17;16.37;;;15.40;99.90;;;;;;10454867;28;20240;-83
2021/08/25 06:11:32;;;;;;;18.03;16.27;;;15.40;99.90;;;;;;10453053;28;20297;-83
2021/08/25 06:16:34;;;;;;;17.50;15.80;;;15.40;99.90;;;;;;10449509;28;20222;-83
2021/08/25 06:21:38;;;;;;;17.80;16.20;;;15.50;99.90;;;;;;10441650;28;20204;-83
2021/08/25 06:26:40;;;;;;;17.10;15.60;;;15.60;99.90;;;;;;10430218;28;20235;-83
2021/08/25 06:31:42;;;;;;;17.77;16.17;;;15.60;99.90;;;;;;10447139;28;20223;-83
2021/08/25 06:36:45;;;;;;;17.20;15.80;;;15.70;99.90;;;;;;10417160;28;20626;-83
2021/08/25 06:41:48;;;;;;;17.10;15.60;;;15.80;99.90;;;;;;10430254;28;20730;-83
2021/08/25 06:46:50;;;;;;;17.53;15.93;;;15.80;99.90;;;;;;10445339;28;20236;-83
2021/08/25 06:51:53;;;;;;;14.90;13.70;;;15.90;99.90;;;;;;10437278;28;20640;-83
2021/08/25 06:56:55;;;;;;;15.50;14.20;;;16.00;99.90;;;;;;10443818;28;20438;-83
2021/08/25 07:01:57;;;;;;;14.27;13.10;;;16.10;99.90;;;;;;10447079;28;20201;-83
2021/08/25 07:07:01;;;;;;;15.20;13.90;;;16.20;99.90;;;;;;10430295;28;20225;-83
2021/08/25 07:12:03;;;;;;;14.70;13.50;;;16.30;99.90;;;;;;10419528;28;20304;-83
2021/08/25 07:17:05;;;;;;;14.27;12.73;;;16.40;99.90;;;;;;10448686;28;20662;-83
2021/08/25 07:22:09;;;;;;;13.60;12.50;;;16.50;99.90;;;;;;10476450;28;20197;-83
2021/08/25 07:27:11;;;;;;;13.57;12.37;;;16.60;99.90;;;;;;10428057;28;20253;-83
2021/08/25 07:32:13;;;;;;;13.33;12.33;;;16.70;99.90;;;;;;10440107;28;20214;-83
2021/08/25 07:37:17;;;;;;;12.87;11.67;;;16.80;99.90;;;;;;10446286;28;20235;-83
2021/08/25 07:42:19;;;;;;;13.00;12.00;;;16.90;99.90;;;;;;10434771;28;20193;-83
2021/08/25 07:47:21;;;;;;;12.33;11.27;;;17.00;99.90;;;;;;10434279;28;20217;-83
2021/08/25 07:52:25;;;;;;;12.47;11.47;;;17.20;99.90;;;;;;10446467;28;20285;-82
2021/08/25 07:57:27;;;;;;;10.73;9.93;;;17.40;99.90;;;;;;10447600;28;20225;-83
2021/08/25 08:02:29;;;;;;;11.00;10.20;;;17.60;99.90;;;;;;10447820;28;20660;-83
2021/08/25 08:07:32;;;;;;;12.20;11.10;;;17.80;99.90;;;;;;10430578;28;20304;-83
2021/08/25 08:12:35;;;;;;;11.00;10.10;;;18.00;99.90;;;;;;10429743;28;20213;-83
2021/08/25 08:17:37;;;;;;;12.00;10.10;;;18.10;99.90;;;;;;10428679;28;20228;-83
2021/08/25 08:22:40;;;;;;;11.10;10.10;;;18.30;99.90;;;;;;10418980;28;20288;-82
2021/08/25 08:27:42;;;;;;;9.67;8.97;;;18.40;99.90;;;;;;10446710;28;20303;-83
2021/08/25 08:32:45;;;;;;;9.37;8.57;;;18.50;99.90;;;;;;10413836;28;20228;-82
2021/08/25 08:37:48;;;;;;;10.33;9.53;;;18.60;99.90;;;;;;10408995;28;20256;-82
2021/08/25 08:42:50;;;;;;;9.60;8.70;;;18.80;99.90;;;;;;10427375;28;20208;-82
2021/08/25 08:47:53;;;;;;;8.27;7.67;;;19.00;99.90;;;;;;10435813;28;20612;-83
2021/08/25 08:52:59;;;;;;;9.90;7.90;;;19.00;99.90;;;;;;10453261;28;20221;-82
2021/08/25 08:58:01;;;;;;;7.13;6.53;;;19.10;99.90;;;;;;10415772;28;20739;-82
2021/08/25 09:03:03;;;;;;;7.03;6.43;;;19.20;99.90;;;;;;10425573;28;20641;-82
2021/08/25 09:08:07;;;;;;;7.30;6.60;;;19.20;99.90;;;;;;10421985;28;20595;-82
2021/08/25 09:13:10;;;;;;;7.63;7.03;;;19.20;99.90;;;;;;10426804;28;20209;-82
2021/08/25 09:18:15;;;;;;;8.57;7.00;;;19.20;99.90;;;;;;10428487;28;20240;-82
2021/08/25 09:23:20;;;;;;;7.00;6.40;;;19.30;99.90;;;;;;10441490;28;20228;-82
2021/08/25 09:28:29;;;;;;;6.50;6.00;;;19.30;99.90;;;;;;10456055;28;20274;-82
2021/08/25 09:33:36;;;;;;;6.73;6.23;;;19.50;99.90;;;;;;10443888;28;20221;-82
2021/08/25 09:38:41;;;;;;;6.63;6.13;;;19.70;99.90;;;;;;10437761;28;20558;-82
2021/08/25 09:43:45;;;;;;;6.30;5.80;;;20.10;99.90;;;;;;10436675;28;20221;-82
2021/08/25 09:48:50;;;;;;;5.87;5.37;;;20.50;99.90;;;;;;10428821;28;20514;-82
2021/08/25 09:54:06;;;;;;;7.00;6.40;;;20.90;99.90;;;;;;10445501;28;20684;-82
2021/08/25 09:59:10;;;;;;;5.90;5.40;;;21.40;99.90;;;;;;10439213;28;20228;-82
2021/08/25 10:04:14;;;;;;;6.97;6.10;;;21.80;99.90;;;;;;10443177;28;20231;-82
2021/08/25 10:09:18;;;;;;;6.27;5.70;;;22.20;99.90;;;;;;10426955;28;20551;-82
2021/08/25 10:14:20;;;;;;;6.37;5.73;;;22.40;99.90;;;;;;10438121;28;20225;-82
2021/08/25 10:19:31;;;;;;;6.37;5.87;;;22.30;99.90;;;;;;10456135;28;20283;-82
2021/08/25 10:25:04;;;;;;;6.33;5.60;;;22.10;99.90;;;;;;10428025;28;20585;-82
2021/08/25 10:30:14;;;;;;;5.23;4.80;;;21.90;99.90;;;;;;10426428;28;20625;-83
2021/08/25 10:35:24;;;;;;;5.27;4.87;;;21.70;99.50;;;;;;10410479;28;20214;-82
2021/08/25 10:40:33;;;;;;;5.67;5.27;;;21.50;99.90;;;;;;10421155;28;20205;-82
2021/08/25 10:45:58;;;;;;;6.00;5.37;;;21.40;99.90;;;;;;10430216;28;20306;-82
2021/08/25 10:51:01;;;;;;;6.23;5.73;;;21.40;99.90;;;;;;10429103;28;20216;-82
2021/08/25 10:56:15;;;;;;;5.80;5.30;;;21.30;99.90;;;;;;10426563;28;20252;-83
2021/08/25 11:01:25;;;;;;;5.33;4.93;;;21.10;99.20;;;;;;10410167;28;20205;-82
2021/08/25 11:06:29;;;;;;;5.63;5.13;;;20.90;99.90;;;;;;10451204;28;20251;-82
2021/08/25 11:11:32;;;;;;;6.40;5.80;;;21.10;99.90;;;;;;10408317;28;20212;-82
2021/08/25 11:16:35;;;;;;;5.90;5.40;;;21.20;99.90;;;;;;10442354;28;20209;-82
2021/08/25 11:21:39;;;;;;;7.13;6.50;;;21.20;99.90;;;;;;10443125;28;20223;-82
2021/08/25 11:26:43;;;;;;;7.10;5.30;;;21.30;99.90;;;;;;10425712;28;20544;-82
2021/08/25 11:31:45;;;;;;;6.70;6.10;;;21.30;99.90;;;;;;10454285;28;20197;-82
2021/08/25 11:36:59;;;;;;;6.40;5.90;;;21.40;99.80;;;;;;10442402;28;20233;-82
2021/08/25 11:42:02;;;;;;;7.73;6.30;;;21.40;99.90;;;;;;10430742;28;20673;-82
2021/08/25 11:47:17;;;;;;;6.67;6.17;;;21.20;99.90;;;;;;10432797;28;20232;-82
2021/08/25 11:52:21;;;;;;;6.60;6.00;;;21.00;99.00;;;;;;10438790;28;20193;-82
2021/08/25 11:57:39;;;;;;;7.03;6.33;;;20.90;99.90;;;;;;10440548;28;20644;-82
2021/08/25 12:02:52;;;;;;;6.57;5.97;;;20.80;97.60;;;;;;10439544;28;20254;-82
2021/08/25 12:08:02;;;;;;;6.50;5.90;;;20.70;99.90;;;;;;10431350;28;20221;-82
2021/08/25 12:13:06;;;;;;;7.30;6.60;;;20.60;99.90;;;;;;10432959;28;20559;-82
2021/08/25 12:18:08;;;;;;;7.23;6.53;;;20.50;99.90;;;;;;10448844;28;20220;-82
2021/08/25 12:23:12;;;;;;;6.40;5.90;;;20.50;99.90;;;;;;10435895;28;20221;-82
2021/08/25 12:28:17;;;;;;;5.57;5.17;;;20.60;98.20;;;;;;10437010;28;20220;-82
2021/08/25 12:33:29;;;;;;;6.70;6.20;;;20.60;99.90;;;;;;10455983;28;20283;-82
2021/08/25 12:38:31;;;;;;;6.13;5.57;;;20.60;99.90;;;;;;10423813;28;20229;-82
2021/08/25 12:43:35;;;;;;;7.47;6.87;;;20.50;99.90;;;;;;10424127;28;20437;-82
2021/08/25 12:48:43;;;;;;;7.10;6.50;;;20.50;98.60;;;;;;10442399;28;20233;-82
2021/08/25 12:53:49;;;;;;;6.90;6.40;;;20.40;99.90;;;;;;10419892;28;20205;-82
2021/08/25 12:58:52;;;;;;;7.33;6.73;;;20.40;99.90;;;;;;10465606;28;20282;-82
2021/08/25 13:03:54;;;;;;;6.00;5.50;;;20.50;98.20;;;;;;10422389;28;20221;-82
2021/08/25 13:08:56;;;;;;;6.57;5.93;;;20.50;99.20;;;;;;10463522;28;20207;-82
2021/08/25 13:14:01;;;;;;;7.30;6.60;;;20.60;97.60;;;;;;10460431;28;20200;-82
2021/08/25 13:19:03;;;;;;;6.00;5.50;;;20.60;97.90;;;;;;10438903;28;20205;-82
2021/08/25 13:24:06;;;;;;;6.53;6.03;;;20.60;97.40;;;;;;10456769;28;20217;-82
2021/08/25 13:29:09;;;;;;;7.10;6.30;;;20.70;98.00;;;;;;10433763;28;20276;-82
2021/08/25 13:34:11;;;;;;;6.40;5.90;;;20.70;97.50;;;;;;10448777;28;20193;-82
2021/08/25 13:39:13;;;;;;;7.10;6.37;;;20.70;97.20;;;;;;10423935;28;20216;-82
2021/08/25 13:44:17;;;;;;;7.27;6.57;;;20.70;98.30;;;;;;10446577;28;20225;-82
2021/08/25 13:49:19;;;;;;;7.93;6.63;;;20.70;99.90;;;;;;10459096;28;20272;-82
2021/08/25 13:54:21;;;;;;;7.07;6.47;;;20.80;99.90;;;;;;10447234;28;20233;-82
2021/08/25 13:59:26;;;;;;;8.40;7.40;;;20.90;98.10;;;;;;10437974;28;20209;-82
2021/08/25 14:04:28;;;;;;;8.53;6.20;;;20.90;97.10;;;;;;10430524;28;20747;-82
2021/08/25 14:09:30;;;;;;;8.10;7.20;;;20.90;97.40;;;;;;10438966;28;20211;-82
2021/08/25 14:14:33;;;;;;;8.13;6.60;;;20.90;96.80;;;;;;10453837;28;20227;-82
2021/08/25 14:19:36;;;;;;;6.80;6.10;;;21.00;96.70;;;;;;10460272;28;20227;-82
2021/08/25 14:24:43;;;;;;;7.33;5.73;;;21.00;98.20;;;;;;10454266;28;20231;-82
2021/08/25 14:29:47;;;;;;;8.07;6.60;;;21.10;96.00;;;;;;10436809;28;20220;-82
2021/08/25 14:34:49;;;;;;;7.17;6.47;;;21.10;97.00;;;;;;10461420;28;20287;-82
2021/08/25 14:39:51;;;;;;;6.13;5.63;;;21.00;96.60;;;;;;10423307;28;20205;-82
2021/08/25 14:44:54;;;;;;;10.27;7.27;;;21.00;98.20;;;;;;10435783;28;20401;-82
2021/08/25 14:49:56;;;;;;;7.77;6.50;;;20.90;95.80;;;;;;10410399;28;20229;-82
2021/08/25 14:54:59;;;;;;;6.90;6.20;;;20.90;97.10;;;;;;10404030;28;20229;-82
2021/08/25 15:00:03;;;;;;;7.47;6.80;;;20.90;99.80;;;;;;10409537;28;20224;-82
2021/08/25 15:05:06;;;;;;;6.47;5.87;;;20.90;97.80;;;;;;10412178;28;20218;-82
2021/08/25 15:10:13;;;;;;;6.50;6.00;;;20.90;96.80;;;;;;10426867;28;20208;-82
2021/08/25 15:15:16;;;;;;;6.57;5.97;;;20.90;99.90;;;;;;10406071;28;20210;-82
2021/08/25 15:20:19;;;;;;;7.20;6.50;;;20.80;99.50;;;;;;10405090;28;20202;-82
2021/08/25 15:25:21;;;;;;;6.33;5.73;;;20.80;99.90;;;;;;10411129;28;20222;-82
2021/08/25 15:30:27;;;;;;;7.63;6.90;;;20.80;97.60;;;;;;10435689;28;20904;-83
2021/08/25 15:35:29;;;;;;;6.60;6.00;;;20.80;95.30;;;;;;10425017;28;20206;-81
2021/08/25 15:40:31;;;;;;;7.10;6.40;;;20.80;99.90;;;;;;10440826;28;20194;-82
2021/08/25 15:45:34;;;;;;;6.00;5.50;;;20.90;96.70;;;;;;10440453;28;20727;-82
2021/08/25 15:50:39;;;;;;;8.63;7.20;;;21.00;97.60;;;;;;10442480;28;20197;-82
2021/08/25 15:55:41;;;;;;;7.07;6.40;;;21.00;98.40;;;;;;10442795;28;20221;-82
2021/08/25 16:00:46;;;;;;;7.30;6.60;;;21.00;99.70;;;;;;10446715;28;20209;-81
2021/08/25 16:05:48;;;;;;;7.00;6.30;;;20.90;99.90;;;;;;10432311;28;20229;-82
2021/08/25 16:10:50;;;;;;;7.30;6.60;;;20.90;99.90;;;;;;10452457;28;20208;-81
2021/08/25 16:15:53;;;;;;;7.50;6.70;;;20.90;99.40;;;;;;10465250;28;20228;-81
2021/08/25 16:20:56;;;;;;;8.80;7.90;;;20.80;98.90;;;;;;10461193;28;20287;-82
2021/08/25 16:25:58;;;;;;;8.80;7.60;;;20.90;98.20;;;;;;10444410;28;20294;-81
2021/08/25 16:31:01;;;;;;;7.47;6.80;;;20.90;99.90;;;;;;10452456;28;20285;-82
2021/08/25 16:36:04;;;;;;;8.00;7.20;;;20.80;99.90;;;;;;10439897;28;20209;-82
2021/08/25 16:41:11;;;;;;;8.20;7.40;;;20.80;99.90;;;;;;10444027;28;20193;-82
2021/08/25 16:46:14;;;;;;;7.67;6.97;;;20.70;98.80;;;;;;10429032;28;20241;-82
2021/08/25 16:51:16;;;;;;;8.00;7.30;;;20.70;99.90;;;;;;10452609;28;20198;-82
2021/08/25 16:56:18;;;;;;;8.23;6.70;;;20.70;99.90;;;;;;10441206;28;20281;-81
2021/08/25 17:01:22;;;;;;;7.10;6.50;;;20.60;99.90;;;;;;10397625;28;20200;-81
2021/08/25 17:06:24;;;;;;;7.50;6.77;;;20.60;99.50;;;;;;10445285;28;20221;-81
2021/08/25 17:11:26;;;;;;;7.90;6.40;;;20.60;99.90;;;;;;10440051;28;20197;-81
2021/08/25 17:16:30;;;;;;;6.77;6.07;;;20.60;99.90;;;;;;10435239;28;20719;-81
2021/08/25 17:21:32;;;;;;;8.20;6.43;;;20.50;99.20;;;;;;10438501;28;20276;-81
2021/08/25 17:26:34;;;;;;;8.00;7.10;;;20.50;99.90;;;;;;10453939;28;20316;-81
2021/08/25 17:31:37;;;;;;;7.43;6.70;;;20.40;99.90;;;;;;10470120;28;20201;-81
2021/08/25 17:36:39;;;;;;;8.27;7.07;;;20.40;99.90;;;;;;10451412;28;20304;-81
2021/08/25 17:41:42;;;;;;;5.77;5.20;;;20.20;99.90;;;;;;10454660;28;20215;-81
2021/08/25 17:46:45;;;;;;;9.27;8.27;;;20.10;99.90;;;;;;10451614;28;20315;-81
2021/08/25 17:51:47;;;;;;;8.67;7.87;;;20.00;99.90;;;;;;10448090;28;20197;-81
2021/08/25 17:56:49;;;;;;;8.40;7.47;;;19.90;99.90;;;;;;10432737;28;20744;-81
2021/08/25 18:01:53;;;;;;;7.87;7.10;;;19.80;99.90;;;;;;10433626;28;20744;-81
2021/08/25 18:06:56;;;;;;;9.50;8.60;;;19.60;99.90;;;;;;10467395;28;20229;-81
2021/08/25 18:11:58;;;;;;;9.53;8.63;;;19.50;99.90;;;;;;10468950;28;20197;-81
2021/08/25 18:17:01;;;;;;;8.27;7.47;;;19.40;99.90;;;;;;10466632;28;20313;-81
2021/08/25 18:22:07;;;;;;;8.30;7.50;;;19.20;99.90;;;;;;10467614;28;20205;-81
2021/08/25 18:27:09;;;;;;;9.77;6.90;;;19.10;99.90;;;;;;10433321;28;20602;-81
2021/08/25 18:32:12;;;;;;;7.87;6.37;;;19.00;99.90;;;;;;10432792;28;20194;-81
2021/08/25 18:37:14;;;;;;;8.20;7.20;;;18.90;99.90;;;;;;10430235;28;20221;-81
2021/08/25 18:42:16;;;;;;;6.70;6.10;;;18.80;99.90;;;;;;10406720;28;20204;-81
2021/08/25 18:47:20;;;;;;;10.10;7.50;;;18.70;99.90;;;;;;10424767;28;20309;-81
2021/08/25 18:52:22;;;;;;;8.20;7.37;;;18.60;99.90;;;;;;10402747;28;20202;-81
2021/08/25 18:57:24;;;;;;;8.53;7.30;;;18.60;99.90;;;;;;10291238;28;20270;-80
2021/08/25 19:02:28;;;;;;;8.30;7.50;;;18.50;99.90;;;;;;10375745;28;20854;-82
2021/08/25 19:07:30;;;;;;;8.47;7.60;;;18.50;99.90;;;;;;10418287;28;20679;-81
2021/08/25 19:12:32;;;;;;;8.80;8.00;;;18.40;99.90;;;;;;10442958;28;20202;-81
2021/08/25 19:17:35;;;;;;;9.90;7.70;;;18.40;99.90;;;;;;10411216;28;20217;-81
2021/08/25 19:22:37;;;;;;;9.37;7.40;;;18.30;99.90;;;;;;10459741;28;20572;-81
2021/08/25 19:27:40;;;;;;;9.00;8.07;;;18.20;99.90;;;;;;10380451;28;20328;-81
2021/08/25 19:32:43;;;;;;;9.47;7.90;;;18.10;99.90;;;;;;10434878;28;20261;-81
2021/08/25 19:37:45;;;;;;;8.47;7.67;;;18.10;99.90;;;;;;10409667;28;20764;-81
2021/08/25 19:42:47;;;;;;;9.43;7.80;;;18.10;99.90;;;;;;10402713;28;20216;-81
2021/08/25 19:47:51;;;;;;;9.70;8.27;;;18.00;99.90;;;;;;10440780;28;20641;-81
2021/08/25 19:52:53;;;;;;;8.90;7.80;;;18.00;99.90;;;;;;10380305;28;20573;-81
2021/08/25 19:57:56;;;;;;;8.67;7.77;;;17.90;99.90;;;;;;10361579;28;20230;-81
2021/08/25 20:02:59;;;;;;;9.23;8.33;;;17.90;99.90;;;;;;10391798;28;20633;-81
2021/08/25 20:08:01;;;;;;;8.03;7.17;;;17.80;99.90;;;;;;10372035;28;20257;-81
2021/08/25 20:13:04;;;;;;;9.37;8.33;;;17.80;99.90;;;;;;10381338;28;20616;-81
2021/08/25 20:18:07;;;;;;;10.87;8.00;;;17.70;99.90;;;;;;10396414;28;20308;-81
2021/08/25 20:23:09;;;;;;;13.93;7.87;;;17.70;99.90;;;;;;10364735;28;21112;-81
2021/08/25 20:28:11;;;;;;;8.43;7.63;;;17.60;99.90;;;;;;10374941;28;20231;-81
2021/08/25 20:33:15;;;;;;;8.53;7.70;;;17.60;99.90;;;;;;10395480;28;20697;-81
2021/08/25 20:38:17;;;;;;;8.60;6.90;;;17.60;99.90;;;;;;10390767;28;20237;-81
2021/08/25 20:43:19;;;;;;;9.23;8.30;;;17.50;99.90;;;;;;10390382;28;20213;-81
2021/08/25 20:48:22;;;;;;;9.97;8.20;;;17.50;99.90;;;;;;10395467;28;20232;-81
2021/08/25 20:53:25;;;;;;;10.13;8.20;;;17.40;99.90;;;;;;10398845;28;20208;-81
2021/08/25 20:58:27;;;;;;;8.33;7.50;;;17.40;99.90;;;;;;10395491;28;20217;-81
2021/08/25 21:03:30;;;;;;;9.43;8.47;;;17.40;99.90;;;;;;10405312;28;20677;-81
2021/08/25 21:08:32;;;;;;;8.37;7.57;;;17.30;99.90;;;;;;10361478;28;20222;-81
2021/08/25 21:13:34;;;;;;;10.70;7.23;;;17.30;99.90;;;;;;10390750;28;20216;-81
2021/08/25 21:18:38;;;;;;;8.30;7.50;;;17.30;99.90;;;;;;10413838;28;20618;-81
2021/08/25 21:23:40;;;;;;;8.20;7.30;;;17.30;99.90;;;;;;10386256;28;20585;-81
2021/08/25 21:28:42;;;;;;;8.80;7.90;;;17.20;99.90;;;;;;10398464;28;20221;-81
2021/08/25 21:33:46;;;;;;;8.37;6.90;;;17.20;99.90;;;;;;10385094;28;20584;-81
2021/08/25 21:38:48;;;;;;;8.30;6.87;;;17.20;99.90;;;;;;10391275;28;20301;-80
2021/08/25 21:43:50;;;;;;;8.77;7.87;;;17.20;99.90;;;;;;10404132;28;20233;-80
2021/08/25 21:48:53;;;;;;;7.73;7.03;;;17.10;99.90;;;;;;10420996;28;20224;-80
2021/08/25 21:53:55;;;;;;;7.50;6.80;;;17.10;99.90;;;;;;10422271;28;20197;-81
2021/08/25 21:59:00;;;;;;;7.70;7.00;;;17.00;99.90;;;;;;10401786;28;20662;-81
2021/08/25 22:04:03;;;;;;;9.33;7.53;;;16.90;99.90;;;;;;10433106;28;20202;-82
2021/08/25 22:09:07;;;;;;;7.80;7.00;;;17.00;99.90;;;;;;10422373;28;20569;-82
2021/08/25 22:14:09;;;;;;;8.80;7.93;;;17.00;99.90;;;;;;10424047;28;20226;-82
2021/08/25 22:19:12;;;;;;;8.10;7.30;;;17.10;99.90;;;;;;10420217;28;20213;-83
2021/08/25 22:24:14;;;;;;;9.33;8.30;;;17.10;99.90;;;;;;10435027;28;20209;-82
2021/08/25 22:29:16;;;;;;;8.87;8.03;;;17.20;99.90;;;;;;10442455;28;20229;-82
2021/08/25 22:34:20;;;;;;;8.10;7.03;;;17.20;99.90;;;;;;10455113;28;20221;-82
2021/08/25 22:39:22;;;;;;;8.37;7.57;;;17.20;99.90;;;;;;10417935;28;20197;-82
2021/08/25 22:44:24;;;;;;;8.30;7.50;;;17.30;99.90;;;;;;10450274;28;20748;-82
2021/08/25 22:49:28;;;;;;;7.80;7.10;;;17.30;99.90;;;;;;10446570;28;20217;-82
2021/08/25 22:54:30;;;;;;;8.97;7.13;;;17.40;99.90;;;;;;10455260;28;20229;-82
2021/08/25 22:59:32;;;;;;;7.83;7.13;;;17.40;99.90;;;;;;10430795;28;20252;-82
2021/08/25 23:04:35;;;;;;;7.53;6.83;;;17.40;99.90;;;;;;10410538;28;20697;-82
2021/08/25 23:09:38;;;;;;;9.93;7.67;;;17.40;99.90;;;;;;10422172;28;20201;-82
2021/08/25 23:14:40;;;;;;;8.03;7.23;;;17.50;99.90;;;;;;10401520;28;20221;-82
2021/08/25 23:19:43;;;;;;;8.87;7.77;;;17.50;99.90;;;;;;10421501;28;20201;-82
2021/08/25 23:24:45;;;;;;;8.00;7.20;;;17.50;99.90;;;;;;10468726;28;20209;-82
2021/08/25 23:29:47;;;;;;;7.53;6.73;;;17.50;99.90;;;;;;10433426;28;20229;-82
2021/08/25 23:34:51;;;;;;;7.67;6.97;;;17.50;99.90;;;;;;10402124;28;20716;-82
2021/08/25 23:39:53;;;;;;;7.27;6.57;;;17.60;99.90;;;;;;10391861;28;20250;-82
2021/08/25 23:44:55;;;;;;;8.53;6.93;;;17.60;99.90;;;;;;10430372;28;20250;-82
2021/08/25 23:50:01;;;;;;;9.63;7.17;;;17.60;99.90;;;;;;10407535;28;20281;-82
2021/08/25 23:55:06;;;;;;;8.10;7.30;;;17.60;99.90;;;;;;10463599;23;20232;-84
